sensor_id;sensor_type;location;lat;lon;timestamp;P1;durP1;ratioP1;P2;durP2;ratioP2
46348;SDS011;32057;47.830;19.046;2022-07-23T00:00:47;1.73;;;1.63;;
46348;SDS011;32057;47.830;19.046;2022-07-23T00:03:12;2.30;;;1.83;;
46348;SDS011;32057;47.830;19.046;2022-07-23T00:05:38;2.88;;;2.10;;
46348;SDS011;32057;47.830;19.046;2022-07-23T00:08:05;1.77;;;1.67;;
46348;SDS011;32057;47.830;19.046;2022-07-23T00:10:32;1.90;;;1.80;;
46348;SDS011;32057;47.830;19.046;2022-07-23T00:12:57;2.00;;;1.80;;
46348;SDS011;32057;47.830;19.046;2022-07-23T00:15:23;5.35;;;1.92;;
46348;SDS011;32057;47.830;19.046;2022-07-23T00:17:48;1.90;;;1.80;;
46348;SDS011;32057;47.830;19.046;2022-07-23T00:20:14;1.58;;;1.48;;
46348;SDS011;32057;47.830;19.046;2022-07-23T00:22:47;1.55;;;1.45;;
46348;SDS011;32057;47.830;19.046;2022-07-23T00:25:16;2.40;;;1.85;;
46348;SDS011;32057;47.830;19.046;2022-07-23T00:27:41;1.58;;;1.48;;
46348;SDS011;32057;47.830;19.046;2022-07-23T00:30:07;2.05;;;1.80;;
46348;SDS011;32057;47.830;19.046;2022-07-23T00:35:12;2.72;;;1.70;;
46348;SDS011;32057;47.830;19.046;2022-07-23T00:37:38;1.63;;;1.52;;
46348;SDS011;32057;47.830;19.046;2022-07-23T00:40:03;3.30;;;2.20;;
46348;SDS011;32057;47.830;19.046;2022-07-23T00:42:30;6.78;;;1.90;;
46348;SDS011;32057;47.830;19.046;2022-07-23T00:44:56;2.38;;;1.85;;
46348;SDS011;32057;47.830;19.046;2022-07-23T00:47:22;2.17;;;1.83;;
46348;SDS011;32057;47.830;19.046;2022-07-23T00:49:47;1.92;;;1.50;;
46348;SDS011;32057;47.830;19.046;2022-07-23T00:52:13;2.95;;;1.30;;
46348;SDS011;32057;47.830;19.046;2022-07-23T00:54:38;1.83;;;1.73;;
46348;SDS011;32057;47.830;19.046;2022-07-23T00:57:04;1.77;;;1.52;;
46348;SDS011;32057;47.830;19.046;2022-07-23T00:59:30;2.33;;;2.13;;
46348;SDS011;32057;47.830;19.046;2022-07-23T01:01:55;2.05;;;1.85;;
46348;SDS011;32057;47.830;19.046;2022-07-23T01:04:21;5.45;;;2.38;;
46348;SDS011;32057;47.830;19.046;2022-07-23T01:06:46;3.42;;;1.90;;
46348;SDS011;32057;47.830;19.046;2022-07-23T01:09:12;3.35;;;1.48;;
46348;SDS011;32057;47.830;19.046;2022-07-23T01:11:38;1.45;;;1.35;;
46348;SDS011;32057;47.830;19.046;2022-07-23T01:14:11;2.88;;;1.80;;
46348;SDS011;32057;47.830;19.046;2022-07-23T01:16:38;1.73;;;1.63;;
46348;SDS011;32057;47.830;19.046;2022-07-23T01:19:03;1.45;;;1.30;;
46348;SDS011;32057;47.830;19.046;2022-07-23T01:21:31;1.67;;;1.58;;
46348;SDS011;32057;47.830;19.046;2022-07-23T01:24:05;2.03;;;1.58;;
46348;SDS011;32057;47.830;19.046;2022-07-23T01:26:31;1.58;;;1.48;;
46348;SDS011;32057;47.830;19.046;2022-07-23T01:28:57;3.17;;;1.60;;
46348;SDS011;32057;47.830;19.046;2022-07-23T01:31:23;2.97;;;2.20;;
46348;SDS011;32057;47.830;19.046;2022-07-23T01:33:48;2.00;;;1.80;;
46348;SDS011;32057;47.830;19.046;2022-07-23T01:36:14;2.25;;;2.15;;
46348;SDS011;32057;47.830;19.046;2022-07-23T01:38:39;3.05;;;2.05;;
46348;SDS011;32057;47.830;19.046;2022-07-23T01:41:04;1.80;;;1.70;;
46348;SDS011;32057;47.830;19.046;2022-07-23T01:43:30;4.35;;;2.03;;
46348;SDS011;32057;47.830;19.046;2022-07-23T01:45:55;2.35;;;1.73;;
46348;SDS011;32057;47.830;19.046;2022-07-23T01:48:21;5.30;;;2.00;;
46348;SDS011;32057;47.830;19.046;2022-07-23T01:50:47;2.58;;;2.33;;
46348;SDS011;32057;47.830;19.046;2022-07-23T01:53:13;4.68;;;2.13;;
46348;SDS011;32057;47.830;19.046;2022-07-23T01:55:39;1.45;;;1.35;;
46348;SDS011;32057;47.830;19.046;2022-07-23T01:58:05;2.75;;;1.85;;
46348;SDS011;32057;47.830;19.046;2022-07-23T02:00:30;2.70;;;2.50;;
46348;SDS011;32057;47.830;19.046;2022-07-23T02:02:56;1.48;;;1.38;;
46348;SDS011;32057;47.830;19.046;2022-07-23T02:05:23;2.00;;;1.48;;
46348;SDS011;32057;47.830;19.046;2022-07-23T02:07:57;2.08;;;1.70;;
46348;SDS011;32057;47.830;19.046;2022-07-23T02:10:22;2.25;;;1.92;;
46348;SDS011;32057;47.830;19.046;2022-07-23T02:12:48;2.15;;;1.50;;
46348;SDS011;32057;47.830;19.046;2022-07-23T02:15:13;2.45;;;1.92;;
46348;SDS011;32057;47.830;19.046;2022-07-23T02:17:39;6.00;;;2.13;;
46348;SDS011;32057;47.830;19.046;2022-07-23T02:20:05;2.13;;;1.92;;
46348;SDS011;32057;47.830;19.046;2022-07-23T02:22:32;4.72;;;1.80;;
46348;SDS011;32057;47.830;19.046;2022-07-23T02:24:57;2.83;;;1.63;;
46348;SDS011;32057;47.830;19.046;2022-07-23T02:27:23;1.52;;;1.42;;
46348;SDS011;32057;47.830;19.046;2022-07-23T02:29:48;2.15;;;1.95;;
46348;SDS011;32057;47.830;19.046;2022-07-23T02:32:14;2.88;;;2.17;;
46348;SDS011;32057;47.830;19.046;2022-07-23T02:34:40;4.50;;;1.73;;
46348;SDS011;32057;47.830;19.046;2022-07-23T02:37:05;1.90;;;1.80;;
46348;SDS011;32057;47.830;19.046;2022-07-23T02:39:31;1.67;;;1.58;;
46348;SDS011;32057;47.830;19.046;2022-07-23T02:41:56;1.63;;;1.52;;
46348;SDS011;32057;47.830;19.046;2022-07-23T02:44:22;2.17;;;1.70;;
46348;SDS011;32057;47.830;19.046;2022-07-23T02:46:47;2.90;;;2.17;;
46348;SDS011;32057;47.830;19.046;2022-07-23T02:49:12;1.92;;;1.38;;
46348;SDS011;32057;47.830;19.046;2022-07-23T02:51:38;1.88;;;1.77;;
46348;SDS011;32057;47.830;19.046;2022-07-23T02:54:03;2.10;;;1.63;;
46348;SDS011;32057;47.830;19.046;2022-07-23T02:56:29;3.20;;;2.20;;
46348;SDS011;32057;47.830;19.046;2022-07-23T02:58:54;1.55;;;1.45;;
46348;SDS011;32057;47.830;19.046;2022-07-23T03:01:19;2.30;;;2.00;;
46348;SDS011;32057;47.830;19.046;2022-07-23T03:03:45;1.95;;;1.77;;
46348;SDS011;32057;47.830;19.046;2022-07-23T03:06:10;2.05;;;1.85;;
46348;SDS011;32057;47.830;19.046;2022-07-23T03:08:36;2.13;;;1.70;;
46348;SDS011;32057;47.830;19.046;2022-07-23T03:11:01;1.40;;;1.30;;
46348;SDS011;32057;47.830;19.046;2022-07-23T03:13:27;1.95;;;1.85;;
46348;SDS011;32057;47.830;19.046;2022-07-23T03:15:52;1.67;;;1.58;;
46348;SDS011;32057;47.830;19.046;2022-07-23T03:18:18;3.80;;;2.45;;
46348;SDS011;32057;47.830;19.046;2022-07-23T03:20:43;1.48;;;1.38;;
46348;SDS011;32057;47.830;19.046;2022-07-23T03:23:09;2.58;;;1.90;;
46348;SDS011;32057;47.830;19.046;2022-07-23T03:25:34;2.13;;;1.63;;
46348;SDS011;32057;47.830;19.046;2022-07-23T03:27:59;1.48;;;1.35;;
46348;SDS011;32057;47.830;19.046;2022-07-23T03:30:25;2.45;;;2.28;;
46348;SDS011;32057;47.830;19.046;2022-07-23T03:32:50;1.63;;;1.52;;
46348;SDS011;32057;47.830;19.046;2022-07-23T03:35:16;2.13;;;1.83;;
46348;SDS011;32057;47.830;19.046;2022-07-23T03:37:41;1.70;;;1.60;;
46348;SDS011;32057;47.830;19.046;2022-07-23T03:40:07;2.97;;;1.90;;
46348;SDS011;32057;47.830;19.046;2022-07-23T03:42:32;6.60;;;1.38;;
46348;SDS011;32057;47.830;19.046;2022-07-23T03:44:58;4.30;;;2.08;;
46348;SDS011;32057;47.830;19.046;2022-07-23T03:47:24;1.75;;;1.60;;
46348;SDS011;32057;47.830;19.046;2022-07-23T03:49:49;2.97;;;1.98;;
46348;SDS011;32057;47.830;19.046;2022-07-23T03:52:15;2.17;;;1.40;;
46348;SDS011;32057;47.830;19.046;2022-07-23T03:54:40;3.28;;;2.03;;
46348;SDS011;32057;47.830;19.046;2022-07-23T03:57:06;2.35;;;1.83;;
46348;SDS011;32057;47.830;19.046;2022-07-23T03:59:31;3.80;;;1.63;;
46348;SDS011;32057;47.830;19.046;2022-07-23T04:01:57;3.00;;;1.90;;
46348;SDS011;32057;47.830;19.046;2022-07-23T04:04:22;2.22;;;2.03;;
46348;SDS011;32057;47.830;19.046;2022-07-23T04:06:48;4.80;;;1.60;;
46348;SDS011;32057;47.830;19.046;2022-07-23T04:09:13;1.80;;;1.65;;
46348;SDS011;32057;47.830;19.046;2022-07-23T04:11:39;2.70;;;1.75;;
46348;SDS011;32057;47.830;19.046;2022-07-23T04:14:04;1.77;;;1.38;;
46348;SDS011;32057;47.830;19.046;2022-07-23T04:16:30;2.05;;;1.85;;
46348;SDS011;32057;47.830;19.046;2022-07-23T04:18:56;1.85;;;1.65;;
46348;SDS011;32057;47.830;19.046;2022-07-23T04:21:22;3.50;;;1.85;;
46348;SDS011;32057;47.830;19.046;2022-07-23T04:23:48;3.35;;;2.97;;
46348;SDS011;32057;47.830;19.046;2022-07-23T04:26:14;5.68;;;3.17;;
46348;SDS011;32057;47.830;19.046;2022-07-23T04:28:40;3.60;;;2.03;;
46348;SDS011;32057;47.830;19.046;2022-07-23T04:31:06;4.40;;;3.45;;
46348;SDS011;32057;47.830;19.046;2022-07-23T04:33:31;11.82;;;4.25;;
46348;SDS011;32057;47.830;19.046;2022-07-23T04:35:56;4.35;;;3.83;;
46348;SDS011;32057;47.830;19.046;2022-07-23T04:38:22;7.55;;;4.28;;
46348;SDS011;32057;47.830;19.046;2022-07-23T04:40:47;7.45;;;2.90;;
46348;SDS011;32057;47.830;19.046;2022-07-23T04:43:13;4.07;;;2.75;;
46348;SDS011;32057;47.830;19.046;2022-07-23T04:45:38;2.40;;;2.20;;
46348;SDS011;32057;47.830;19.046;2022-07-23T04:48:04;6.55;;;2.60;;
46348;SDS011;32057;47.830;19.046;2022-07-23T04:50:29;4.93;;;2.50;;
46348;SDS011;32057;47.830;19.046;2022-07-23T04:52:55;6.90;;;3.30;;
46348;SDS011;32057;47.830;19.046;2022-07-23T04:55:20;5.00;;;2.03;;
46348;SDS011;32057;47.830;19.046;2022-07-23T04:57:46;4.35;;;2.33;;
46348;SDS011;32057;47.830;19.046;2022-07-23T05:00:11;8.82;;;4.82;;
46348;SDS011;32057;47.830;19.046;2022-07-23T05:02:37;22.83;;;7.00;;
46348;SDS011;32057;47.830;19.046;2022-07-23T05:05:02;25.20;;;5.55;;
46348;SDS011;32057;47.830;19.046;2022-07-23T05:07:28;9.38;;;3.90;;
46348;SDS011;32057;47.830;19.046;2022-07-23T05:09:54;6.32;;;2.78;;
46348;SDS011;32057;47.830;19.046;2022-07-23T05:12:19;6.32;;;2.75;;
46348;SDS011;32057;47.830;19.046;2022-07-23T05:14:45;3.00;;;2.38;;
46348;SDS011;32057;47.830;19.046;2022-07-23T05:17:10;4.53;;;1.67;;
46348;SDS011;32057;47.830;19.046;2022-07-23T05:19:35;1.50;;;1.40;;
46348;SDS011;32057;47.830;19.046;2022-07-23T05:22:01;3.03;;;1.50;;
46348;SDS011;32057;47.830;19.046;2022-07-23T05:24:27;2.47;;;1.65;;
46348;SDS011;32057;47.830;19.046;2022-07-23T05:26:52;1.48;;;1.38;;
46348;SDS011;32057;47.830;19.046;2022-07-23T05:29:18;2.13;;;1.83;;
46348;SDS011;32057;47.830;19.046;2022-07-23T05:31:43;1.50;;;1.23;;
46348;SDS011;32057;47.830;19.046;2022-07-23T05:34:09;1.95;;;1.85;;
46348;SDS011;32057;47.830;19.046;2022-07-23T05:36:34;1.38;;;1.27;;
46348;SDS011;32057;47.830;19.046;2022-07-23T05:39:00;1.73;;;1.20;;
46348;SDS011;32057;47.830;19.046;2022-07-23T05:41:26;2.50;;;1.55;;
46348;SDS011;32057;47.830;19.046;2022-07-23T05:43:51;1.38;;;1.33;;
46348;SDS011;32057;47.830;19.046;2022-07-23T05:46:16;3.85;;;1.58;;
46348;SDS011;32057;47.830;19.046;2022-07-23T05:48:42;6.45;;;2.05;;
46348;SDS011;32057;47.830;19.046;2022-07-23T05:51:08;1.88;;;1.52;;
46348;SDS011;32057;47.830;19.046;2022-07-23T05:53:34;4.85;;;1.63;;
46348;SDS011;32057;47.830;19.046;2022-07-23T05:56:00;2.78;;;2.15;;
46348;SDS011;32057;47.830;19.046;2022-07-23T05:58:25;1.88;;;1.40;;
46348;SDS011;32057;47.830;19.046;2022-07-23T06:00:51;1.58;;;1.48;;
46348;SDS011;32057;47.830;19.046;2022-07-23T06:03:16;1.75;;;1.65;;
46348;SDS011;32057;47.830;19.046;2022-07-23T06:05:42;2.65;;;1.75;;
46348;SDS011;32057;47.830;19.046;2022-07-23T06:08:07;2.20;;;1.50;;
46348;SDS011;32057;47.830;19.046;2022-07-23T06:10:33;1.70;;;1.60;;
46348;SDS011;32057;47.830;19.046;2022-07-23T06:12:58;2.88;;;1.45;;
46348;SDS011;32057;47.830;19.046;2022-07-23T06:15:23;3.65;;;1.45;;
46348;SDS011;32057;47.830;19.046;2022-07-23T06:17:49;1.95;;;1.50;;
46348;SDS011;32057;47.830;19.046;2022-07-23T06:20:14;1.50;;;1.17;;
46348;SDS011;32057;47.830;19.046;2022-07-23T06:22:40;4.45;;;1.83;;
46348;SDS011;32057;47.830;19.046;2022-07-23T06:25:06;1.85;;;1.73;;
46348;SDS011;32057;47.830;19.046;2022-07-23T06:27:32;3.25;;;1.50;;
46348;SDS011;32057;47.830;19.046;2022-07-23T06:29:57;3.08;;;1.58;;
46348;SDS011;32057;47.830;19.046;2022-07-23T06:32:23;3.10;;;1.65;;
46348;SDS011;32057;47.830;19.046;2022-07-23T06:34:48;2.03;;;1.83;;
46348;SDS011;32057;47.830;19.046;2022-07-23T06:37:13;1.38;;;1.27;;
46348;SDS011;32057;47.830;19.046;2022-07-23T06:39:39;1.52;;;1.30;;
46348;SDS011;32057;47.830;19.046;2022-07-23T06:42:04;1.58;;;1.33;;
46348;SDS011;32057;47.830;19.046;2022-07-23T06:44:30;1.65;;;1.55;;
46348;SDS011;32057;47.830;19.046;2022-07-23T06:46:55;1.40;;;1.30;;
46348;SDS011;32057;47.830;19.046;2022-07-23T06:49:21;1.00;;;1.00;;
46348;SDS011;32057;47.830;19.046;2022-07-23T06:51:46;1.48;;;1.38;;
46348;SDS011;32057;47.830;19.046;2022-07-23T06:54:11;2.03;;;1.88;;
46348;SDS011;32057;47.830;19.046;2022-07-23T06:56:37;4.20;;;1.40;;
46348;SDS011;32057;47.830;19.046;2022-07-23T06:59:02;2.03;;;1.83;;
46348;SDS011;32057;47.830;19.046;2022-07-23T07:01:28;3.55;;;1.85;;
46348;SDS011;32057;47.830;19.046;2022-07-23T07:03:54;1.58;;;1.48;;
46348;SDS011;32057;47.830;19.046;2022-07-23T07:06:19;1.42;;;1.25;;
46348;SDS011;32057;47.830;19.046;2022-07-23T07:08:45;2.42;;;1.20;;
46348;SDS011;32057;47.830;19.046;2022-07-23T07:11:10;2.67;;;1.60;;
46348;SDS011;32057;47.830;19.046;2022-07-23T07:13:36;4.80;;;1.13;;
46348;SDS011;32057;47.830;19.046;2022-07-23T07:16:03;1.23;;;1.02;;
46348;SDS011;32057;47.830;19.046;2022-07-23T07:18:29;1.65;;;1.42;;
46348;SDS011;32057;47.830;19.046;2022-07-23T07:20:56;9.93;;;2.13;;
46348;SDS011;32057;47.830;19.046;2022-07-23T07:23:22;1.60;;;1.50;;
46348;SDS011;32057;47.830;19.046;2022-07-23T07:25:48;2.35;;;2.08;;
46348;SDS011;32057;47.830;19.046;2022-07-23T07:28:13;1.23;;;1.13;;
46348;SDS011;32057;47.830;19.046;2022-07-23T07:30:38;1.48;;;1.35;;
46348;SDS011;32057;47.830;19.046;2022-07-23T07:33:04;5.20;;;2.67;;
46348;SDS011;32057;47.830;19.046;2022-07-23T07:35:29;1.40;;;1.30;;
46348;SDS011;32057;47.830;19.046;2022-07-23T07:37:57;1.20;;;1.10;;
46348;SDS011;32057;47.830;19.046;2022-07-23T07:40:23;1.92;;;1.45;;
46348;SDS011;32057;47.830;19.046;2022-07-23T07:42:50;3.10;;;1.38;;
46348;SDS011;32057;47.830;19.046;2022-07-23T07:45:21;1.92;;;1.58;;
46348;SDS011;32057;47.830;19.046;2022-07-23T07:47:46;2.95;;;1.98;;
46348;SDS011;32057;47.830;19.046;2022-07-23T07:50:12;1.90;;;1.77;;
46348;SDS011;32057;47.830;19.046;2022-07-23T07:52:38;1.75;;;1.30;;
46348;SDS011;32057;47.830;19.046;2022-07-23T07:55:04;1.77;;;1.60;;
46348;SDS011;32057;47.830;19.046;2022-07-23T07:57:31;4.28;;;2.30;;
46348;SDS011;32057;47.830;19.046;2022-07-23T07:59:57;1.92;;;1.50;;
46348;SDS011;32057;47.830;19.046;2022-07-23T08:02:23;3.22;;;1.30;;
46348;SDS011;32057;47.830;19.046;2022-07-23T08:04:48;2.20;;;1.70;;
46348;SDS011;32057;47.830;19.046;2022-07-23T08:07:14;1.65;;;1.30;;
46348;SDS011;32057;47.830;19.046;2022-07-23T08:09:40;2.40;;;2.13;;
46348;SDS011;32057;47.830;19.046;2022-07-23T08:12:06;2.08;;;1.35;;
46348;SDS011;32057;47.830;19.046;2022-07-23T08:14:32;1.60;;;1.50;;
46348;SDS011;32057;47.830;19.046;2022-07-23T08:16:57;1.63;;;1.52;;
46348;SDS011;32057;47.830;19.046;2022-07-23T08:19:22;1.60;;;1.50;;
46348;SDS011;32057;47.830;19.046;2022-07-23T08:21:48;1.90;;;1.45;;
46348;SDS011;32057;47.830;19.046;2022-07-23T08:24:13;1.50;;;1.40;;
46348;SDS011;32057;47.830;19.046;2022-07-23T08:26:39;1.10;;;1.10;;
46348;SDS011;32057;47.830;19.046;2022-07-23T08:29:04;1.65;;;1.35;;
46348;SDS011;32057;47.830;19.046;2022-07-23T08:31:30;1.40;;;1.30;;
46348;SDS011;32057;47.830;19.046;2022-07-23T08:33:58;1.92;;;1.50;;
46348;SDS011;32057;47.830;19.046;2022-07-23T08:36:24;1.88;;;1.20;;
46348;SDS011;32057;47.830;19.046;2022-07-23T08:38:52;3.13;;;1.80;;
46348;SDS011;32057;47.830;19.046;2022-07-23T08:41:18;2.78;;;1.80;;
46348;SDS011;32057;47.830;19.046;2022-07-23T08:43:44;10.13;;;1.92;;
46348;SDS011;32057;47.830;19.046;2022-07-23T08:46:09;2.05;;;1.85;;
46348;SDS011;32057;47.830;19.046;2022-07-23T08:48:35;1.95;;;1.85;;
46348;SDS011;32057;47.830;19.046;2022-07-23T08:51:02;1.30;;;1.20;;
46348;SDS011;32057;47.830;19.046;2022-07-23T08:53:29;1.58;;;1.48;;
46348;SDS011;32057;47.830;19.046;2022-07-23T08:55:56;1.75;;;1.60;;
46348;SDS011;32057;47.830;19.046;2022-07-23T08:58:24;1.55;;;1.45;;
46348;SDS011;32057;47.830;19.046;2022-07-23T09:00:50;1.35;;;1.25;;
46348;SDS011;32057;47.830;19.046;2022-07-23T09:03:23;1.27;;;1.17;;
46348;SDS011;32057;47.830;19.046;2022-07-23T09:05:50;2.10;;;1.63;;
46348;SDS011;32057;47.830;19.046;2022-07-23T09:08:19;1.73;;;1.02;;
46348;SDS011;32057;47.830;19.046;2022-07-23T09:10:51;1.10;;;1.02;;
46348;SDS011;32057;47.830;19.046;2022-07-23T09:15:49;6.28;;;2.10;;
46348;SDS011;32057;47.830;19.046;2022-07-23T09:18:16;1.73;;;1.63;;
46348;SDS011;32057;47.830;19.046;2022-07-23T09:20:43;3.53;;;1.20;;
46348;SDS011;32057;47.830;19.046;2022-07-23T09:23:09;4.60;;;1.55;;
46348;SDS011;32057;47.830;19.046;2022-07-23T09:25:34;2.25;;;1.70;;
46348;SDS011;32057;47.830;19.046;2022-07-23T09:28:00;1.50;;;1.40;;
46348;SDS011;32057;47.830;19.046;2022-07-23T09:30:29;3.70;;;2.15;;
46348;SDS011;32057;47.830;19.046;2022-07-23T09:33:06;2.35;;;2.10;;
46348;SDS011;32057;47.830;19.046;2022-07-23T09:35:43;1.40;;;1.27;;
46348;SDS011;32057;47.830;19.046;2022-07-23T09:38:10;1.98;;;1.88;;
46348;SDS011;32057;47.830;19.046;2022-07-23T09:40:35;2.75;;;1.45;;
46348;SDS011;32057;47.830;19.046;2022-07-23T09:43:00;1.50;;;1.40;;
46348;SDS011;32057;47.830;19.046;2022-07-23T09:45:26;4.03;;;1.70;;
46348;SDS011;32057;47.830;19.046;2022-07-23T09:47:51;1.52;;;1.42;;
46348;SDS011;32057;47.830;19.046;2022-07-23T09:50:38;2.22;;;1.63;;
46348;SDS011;32057;47.830;19.046;2022-07-23T09:53:04;2.53;;;1.60;;
46348;SDS011;32057;47.830;19.046;2022-07-23T09:55:31;1.63;;;1.27;;
46348;SDS011;32057;47.830;19.046;2022-07-23T09:58:02;2.38;;;2.00;;
46348;SDS011;32057;47.830;19.046;2022-07-23T10:00:28;1.83;;;1.73;;
46348;SDS011;32057;47.830;19.046;2022-07-23T10:02:55;2.03;;;1.70;;
46348;SDS011;32057;47.830;19.046;2022-07-23T10:05:22;2.60;;;2.25;;
46348;SDS011;32057;47.830;19.046;2022-07-23T10:07:49;6.88;;;2.42;;
46348;SDS011;32057;47.830;19.046;2022-07-23T10:10:16;1.63;;;1.52;;
46348;SDS011;32057;47.830;19.046;2022-07-23T10:12:46;1.75;;;1.65;;
46348;SDS011;32057;47.830;19.046;2022-07-23T10:15:32;2.15;;;1.95;;
46348;SDS011;32057;47.830;19.046;2022-07-23T10:17:57;1.55;;;1.30;;
46348;SDS011;32057;47.830;19.046;2022-07-23T10:20:23;2.97;;;1.80;;
46348;SDS011;32057;47.830;19.046;2022-07-23T10:26:03;2.13;;;1.75;;
46348;SDS011;32057;47.830;19.046;2022-07-23T10:34:21;1.75;;;1.63;;
46348;SDS011;32057;47.830;19.046;2022-07-23T10:37:12;2.03;;;1.83;;
46348;SDS011;32057;47.830;19.046;2022-07-23T10:39:47;1.77;;;1.67;;
46348;SDS011;32057;47.830;19.046;2022-07-23T10:44:43;1.77;;;1.67;;
46348;SDS011;32057;47.830;19.046;2022-07-23T10:47:11;1.60;;;1.50;;
46348;SDS011;32057;47.830;19.046;2022-07-23T10:49:49;2.50;;;2.30;;
46348;SDS011;32057;47.830;19.046;2022-07-23T10:54:41;2.40;;;1.90;;
46348;SDS011;32057;47.830;19.046;2022-07-23T10:57:07;2.28;;;2.03;;
46348;SDS011;32057;47.830;19.046;2022-07-23T11:02:30;3.13;;;2.03;;
46348;SDS011;32057;47.830;19.046;2022-07-23T11:05:00;1.38;;;1.33;;
46348;SDS011;32057;47.830;19.046;2022-07-23T11:07:28;2.42;;;2.22;;
46348;SDS011;32057;47.830;19.046;2022-07-23T11:09:53;2.03;;;1.80;;
46348;SDS011;32057;47.830;19.046;2022-07-23T11:17:22;1.88;;;1.77;;
46348;SDS011;32057;47.830;19.046;2022-07-23T11:22:46;2.08;;;1.70;;
46348;SDS011;32057;47.830;19.046;2022-07-23T11:27:55;1.83;;;1.70;;
46348;SDS011;32057;47.830;19.046;2022-07-23T11:35:33;1.60;;;1.50;;
46348;SDS011;32057;47.830;19.046;2022-07-23T11:38:05;1.83;;;1.73;;
46348;SDS011;32057;47.830;19.046;2022-07-23T11:40:32;2.17;;;2.08;;
46348;SDS011;32057;47.830;19.046;2022-07-23T11:43:00;2.35;;;2.10;;
46348;SDS011;32057;47.830;19.046;2022-07-23T11:48:09;2.13;;;1.65;;
46348;SDS011;32057;47.830;19.046;2022-07-23T11:50:46;2.83;;;2.17;;
46348;SDS011;32057;47.830;19.046;2022-07-23T11:53:15;2.38;;;2.15;;
46348;SDS011;32057;47.830;19.046;2022-07-23T11:58:20;1.40;;;1.30;;
46348;SDS011;32057;47.830;19.046;2022-07-23T12:00:46;2.30;;;2.10;;
46348;SDS011;32057;47.830;19.046;2022-07-23T12:03:12;1.70;;;1.55;;
46348;SDS011;32057;47.830;19.046;2022-07-23T12:05:37;1.48;;;1.40;;
46348;SDS011;32057;47.830;19.046;2022-07-23T12:08:05;1.55;;;1.45;;
46348;SDS011;32057;47.830;19.046;2022-07-23T12:10:36;1.63;;;1.52;;
46348;SDS011;32057;47.830;19.046;2022-07-23T12:13:08;2.28;;;1.85;;
46348;SDS011;32057;47.830;19.046;2022-07-23T12:15:42;1.83;;;1.73;;
46348;SDS011;32057;47.830;19.046;2022-07-23T12:18:09;1.45;;;1.33;;
46348;SDS011;32057;47.830;19.046;2022-07-23T12:20:37;1.77;;;1.67;;
46348;SDS011;32057;47.830;19.046;2022-07-23T12:23:08;3.30;;;2.20;;
46348;SDS011;32057;47.830;19.046;2022-07-23T12:25:35;1.88;;;1.77;;
46348;SDS011;32057;47.830;19.046;2022-07-23T12:28:07;1.80;;;1.70;;
46348;SDS011;32057;47.830;19.046;2022-07-23T12:30:49;2.35;;;2.15;;
46348;SDS011;32057;47.830;19.046;2022-07-23T12:33:32;2.70;;;2.05;;
46348;SDS011;32057;47.830;19.046;2022-07-23T12:36:00;2.17;;;1.67;;
46348;SDS011;32057;47.830;19.046;2022-07-23T12:38:35;1.70;;;1.60;;
46348;SDS011;32057;47.830;19.046;2022-07-23T12:41:03;1.52;;;1.42;;
46348;SDS011;32057;47.830;19.046;2022-07-23T12:48:38;2.35;;;2.20;;
46348;SDS011;32057;47.830;19.046;2022-07-23T12:56:11;1.88;;;1.77;;
46348;SDS011;32057;47.830;19.046;2022-07-23T12:59:24;1.73;;;1.48;;
46348;SDS011;32057;47.830;19.046;2022-07-23T13:01:45;1.90;;;1.80;;
46348;SDS011;32057;47.830;19.046;2022-07-23T13:04:19;9.13;;;1.90;;
46348;SDS011;32057;47.830;19.046;2022-07-23T13:06:47;5.20;;;1.92;;
46348;SDS011;32057;47.830;19.046;2022-07-23T13:09:15;6.50;;;1.77;;
46348;SDS011;32057;47.830;19.046;2022-07-23T13:11:46;1.60;;;1.50;;
46348;SDS011;32057;47.830;19.046;2022-07-23T13:14:12;1.75;;;1.65;;
46348;SDS011;32057;47.830;19.046;2022-07-23T13:16:39;2.35;;;2.15;;
46348;SDS011;32057;47.830;19.046;2022-07-23T13:19:06;1.63;;;1.52;;
46348;SDS011;32057;47.830;19.046;2022-07-23T13:21:32;1.98;;;1.88;;
46348;SDS011;32057;47.830;19.046;2022-07-23T13:23:57;2.17;;;2.05;;
46348;SDS011;32057;47.830;19.046;2022-07-23T13:26:23;1.67;;;1.55;;
46348;SDS011;32057;47.830;19.046;2022-07-23T13:28:49;2.00;;;1.83;;
46348;SDS011;32057;47.830;19.046;2022-07-23T13:31:16;2.17;;;1.77;;
46348;SDS011;32057;47.830;19.046;2022-07-23T13:33:41;1.60;;;1.50;;
46348;SDS011;32057;47.830;19.046;2022-07-23T13:36:07;2.70;;;1.75;;
46348;SDS011;32057;47.830;19.046;2022-07-23T13:38:33;2.25;;;2.05;;
46348;SDS011;32057;47.830;19.046;2022-07-23T13:40:58;10.40;;;3.13;;
46348;SDS011;32057;47.830;19.046;2022-07-23T13:43:24;1.80;;;1.70;;
46348;SDS011;32057;47.830;19.046;2022-07-23T13:45:51;5.32;;;2.10;;
46348;SDS011;32057;47.830;19.046;2022-07-23T13:48:18;2.28;;;2.05;;
46348;SDS011;32057;47.830;19.046;2022-07-23T13:50:45;1.88;;;1.67;;
46348;SDS011;32057;47.830;19.046;2022-07-23T13:53:12;2.28;;;2.08;;
46348;SDS011;32057;47.830;19.046;2022-07-23T13:55:40;1.88;;;1.73;;
46348;SDS011;32057;47.830;19.046;2022-07-23T13:58:06;1.50;;;1.40;;
46348;SDS011;32057;47.830;19.046;2022-07-23T14:00:34;2.00;;;1.88;;
46348;SDS011;32057;47.830;19.046;2022-07-23T14:03:00;3.00;;;2.00;;
46348;SDS011;32057;47.830;19.046;2022-07-23T14:05:26;3.63;;;1.70;;
46348;SDS011;32057;47.830;19.046;2022-07-23T14:07:52;5.65;;;1.83;;
46348;SDS011;32057;47.830;19.046;2022-07-23T14:10:19;3.85;;;1.55;;
46348;SDS011;32057;47.830;19.046;2022-07-23T14:12:46;1.85;;;1.70;;
46348;SDS011;32057;47.830;19.046;2022-07-23T14:15:13;1.92;;;1.80;;
46348;SDS011;32057;47.830;19.046;2022-07-23T14:17:40;1.80;;;1.70;;
46348;SDS011;32057;47.830;19.046;2022-07-23T14:20:07;2.50;;;2.30;;
46348;SDS011;32057;47.830;19.046;2022-07-23T14:22:33;2.03;;;1.92;;
46348;SDS011;32057;47.830;19.046;2022-07-23T14:24:59;1.73;;;1.63;;
46348;SDS011;32057;47.830;19.046;2022-07-23T14:27:26;1.95;;;1.60;;
46348;SDS011;32057;47.830;19.046;2022-07-23T14:29:52;2.15;;;1.50;;
46348;SDS011;32057;47.830;19.046;2022-07-23T14:32:18;2.00;;;1.80;;
46348;SDS011;32057;47.830;19.046;2022-07-23T14:34:44;1.63;;;1.52;;
46348;SDS011;32057;47.830;19.046;2022-07-23T14:37:10;1.80;;;1.70;;
46348;SDS011;32057;47.830;19.046;2022-07-23T14:39:37;2.03;;;1.85;;
46348;SDS011;32057;47.830;19.046;2022-07-23T14:42:03;2.05;;;1.90;;
46348;SDS011;32057;47.830;19.046;2022-07-23T14:44:29;3.45;;;3.15;;
46348;SDS011;32057;47.830;19.046;2022-07-23T14:46:55;1.98;;;1.88;;
46348;SDS011;32057;47.830;19.046;2022-07-23T14:49:23;2.17;;;1.98;;
46348;SDS011;32057;47.830;19.046;2022-07-23T14:51:48;4.28;;;2.50;;
46348;SDS011;32057;47.830;19.046;2022-07-23T14:54:14;2.03;;;1.90;;
46348;SDS011;32057;47.830;19.046;2022-07-23T14:56:40;2.17;;;1.92;;
46348;SDS011;32057;47.830;19.046;2022-07-23T14:59:07;3.33;;;2.00;;
46348;SDS011;32057;47.830;19.046;2022-07-23T15:01:33;2.20;;;2.00;;
46348;SDS011;32057;47.830;19.046;2022-07-23T15:03:59;2.15;;;1.70;;
46348;SDS011;32057;47.830;19.046;2022-07-23T15:06:24;1.75;;;1.58;;
46348;SDS011;32057;47.830;19.046;2022-07-23T15:08:50;1.48;;;1.38;;
46348;SDS011;32057;47.830;19.046;2022-07-23T15:11:16;1.88;;;1.70;;
46348;SDS011;32057;47.830;19.046;2022-07-23T15:13:41;3.97;;;2.05;;
46348;SDS011;32057;47.830;19.046;2022-07-23T15:16:07;1.80;;;1.70;;
46348;SDS011;32057;47.830;19.046;2022-07-23T15:18:33;1.60;;;1.45;;
46348;SDS011;32057;47.830;19.046;2022-07-23T15:20:59;2.63;;;1.88;;
46348;SDS011;32057;47.830;19.046;2022-07-23T15:23:26;2.13;;;2.03;;